createdAt,value
2017-01-19T00:00:23.997Z,-15.45
2017-01-19T00:01:23.968Z,-15.43
2017-01-19T00:02:24.084Z,-15.48
2017-01-19T00:03:23.918Z,-15.46
2017-01-19T00:04:23.908Z,-15.42
2017-01-19T00:05:23.867Z,-15.42
2017-01-19T00:06:23.838Z,-15.39
2017-01-19T00:07:23.953Z,-15.46
2017-01-19T00:08:23.792Z,-15.39
2017-01-19T00:09:23.761Z,-15.48
2017-01-19T00:10:23.866Z,-15.46
2017-01-19T00:11:23.713Z,-15.52
2017-01-19T00:12:23.686Z,-15.52
2017-01-19T00:13:23.732Z,-15.42
2017-01-19T00:14:23.633Z,-15.37
2017-01-19T00:15:23.607Z,-15.42
2017-01-19T00:16:23.581Z,-15.4
2017-01-19T00:17:23.553Z,-15.43
2017-01-19T00:18:23.530Z,-15.4
2017-01-19T00:19:23.514Z,-15.42
2017-01-19T00:20:23.493Z,-15.39
2017-01-19T00:21:23.454Z,-15.36
2017-01-19T00:22:23.431Z,-15.34
2017-01-19T00:23:23.801Z,-15.36
2017-01-19T00:24:23.373Z,-15.32
2017-01-19T00:25:23.350Z,-15.36
2017-01-19T00:26:23.328Z,-15.32
2017-01-19T00:27:23.299Z,-15.45
2017-01-19T00:28:23.269Z,-15.4
2017-01-19T00:29:23.247Z,-15.32
2017-01-19T00:30:23.239Z,-15.42
2017-01-19T00:31:23.192Z,-15.29
2017-01-19T00:32:23.176Z,-15.29
2017-01-19T00:33:23.313Z,-15.32
2017-01-19T00:34:23.115Z,-15.42
2017-01-19T00:35:23.095Z,-15.27
2017-01-19T00:36:23.204Z,-15.27
2017-01-19T00:37:23.059Z,-15.29
2017-01-19T00:38:23.014Z,-15.25
2017-01-19T00:39:22.994Z,-15.22
2017-01-19T00:40:23.356Z,-15.27
2017-01-19T00:41:23.102Z,-15.28
2017-01-19T00:42:22.907Z,-15.28
2017-01-19T00:43:22.885Z,-15.25
2017-01-19T00:44:23.028Z,-15.28
2017-01-19T00:45:22.834Z,-15.24
2017-01-19T00:46:22.806Z,-15.25
2017-01-19T00:47:22.914Z,-15.25
2017-01-19T00:48:22.756Z,-15.28
2017-01-19T00:49:22.729Z,-15.28
2017-01-19T00:50:22.861Z,-15.29
2017-01-19T00:51:22.680Z,-15.27
2017-01-19T00:52:22.655Z,-15.36
2017-01-19T00:53:22.838Z,-15.28
2017-01-19T00:54:22.604Z,-15.28
2017-01-19T00:55:22.574Z,-15.32
2017-01-19T00:56:22.708Z,-15.25
2017-01-19T00:57:22.809Z,-15.29
2017-01-19T00:58:22.496Z,-15.27
2017-01-19T00:59:22.490Z,-15.28
2017-01-19T01:00:22.622Z,-15.25
2017-01-19T01:01:22.418Z,-15.27
2017-01-19T01:02:22.396Z,-15.27
2017-01-19T01:03:23.164Z,-15.27
2017-01-19T01:04:22.346Z,-15.27
2017-01-19T01:05:22.319Z,-15.32
2017-01-19T01:06:22.820Z,-15.29
2017-01-19T01:07:22.263Z,-15.32
2017-01-19T01:08:22.238Z,-15.46
2017-01-19T01:09:22.377Z,-15.4
2017-01-19T01:10:22.188Z,-15.46
2017-01-19T01:11:22.164Z,-15.43
2017-01-19T01:12:22.206Z,-15.43
2017-01-19T01:13:22.113Z,-15.42
2017-01-19T01:14:22.087Z,-15.48
2017-01-19T01:15:22.123Z,-15.54
2017-01-19T01:16:22.041Z,-15.57
2017-01-19T01:17:22.012Z,-15.52
2017-01-19T01:18:22.049Z,-15.64
2017-01-19T01:19:21.954Z,-15.63
2017-01-19T01:20:21.929Z,-15.69
2017-01-19T01:21:22.214Z,-15.71
2017-01-19T01:22:21.878Z,-15.74
2017-01-19T01:23:21.854Z,-15.81
2017-01-19T01:24:21.883Z,-15.81
2017-01-19T01:25:21.806Z,-15.87
2017-01-19T01:26:21.781Z,-15.87
2017-01-19T01:27:21.787Z,-15.87
2017-01-19T01:28:21.727Z,-15.92
2017-01-19T01:29:21.699Z,-15.93
2017-01-19T01:30:21.710Z,-15.93
2017-01-19T01:31:21.653Z,-15.98
2017-01-19T01:32:21.644Z,-15.98
2017-01-19T01:33:21.594Z,-15.98
2017-01-19T01:34:21.783Z,-16.02
2017-01-19T01:35:21.546Z,-16.01
2017-01-19T01:36:21.517Z,-16.02
2017-01-19T01:37:21.491Z,-15.96
2017-01-19T01:38:21.500Z,-15.95
2017-01-19T01:39:21.440Z,-15.92
2017-01-19T01:40:21.414Z,-15.9
2017-01-19T01:41:21.241Z,-15.85
2017-01-19T01:42:21.183Z,-15.87
2017-01-19T01:43:21.158Z,-15.85
2017-01-19T01:44:21.155Z,-15.98
2017-01-19T01:45:21.104Z,-15.87
2017-01-19T01:46:21.079Z,-15.85
2017-01-19T01:47:21.087Z,-15.88
2017-01-19T01:48:21.031Z,-15.95
2017-01-19T01:49:21.002Z,-16.01
2017-01-19T01:50:21.081Z,-15.9
2017-01-19T01:51:20.951Z,-15.98
2017-01-19T01:52:20.924Z,-15.96
2017-01-19T01:53:21.003Z,-15.95
2017-01-19T01:54:20.881Z,-15.88
2017-01-19T01:55:20.848Z,-15.92
2017-01-19T01:56:20.925Z,-15.9
2017-01-19T01:57:20.798Z,-15.92
2017-01-19T01:58:20.771Z,-15.85
2017-01-19T01:59:20.900Z,-15.87
2017-01-19T02:00:20.719Z,-15.9
2017-01-19T02:01:20.698Z,-15.81
2017-01-19T02:02:20.766Z,-15.81
2017-01-19T02:03:20.646Z,-15.7
2017-01-19T02:04:20.616Z,-15.74
2017-01-19T02:05:20.685Z,-15.77
2017-01-19T02:06:20.565Z,-15.7
2017-01-19T02:07:20.543Z,-15.75
2017-01-19T02:08:20.846Z,-15.7
2017-01-19T02:09:20.490Z,-15.78
2017-01-19T02:10:20.466Z,-15.74
2017-01-19T02:11:20.439Z,-15.69
2017-01-19T02:12:20.413Z,-15.75
2017-01-19T02:13:20.385Z,-15.74
2017-01-19T02:14:20.361Z,-15.71
2017-01-19T02:15:20.336Z,-15.71
2017-01-19T02:16:20.310Z,-15.67
2017-01-19T02:17:20.378Z,-15.74
2017-01-19T02:18:20.260Z,-15.74
2017-01-19T02:19:20.234Z,-15.67
2017-01-19T02:20:20.208Z,-15.67
2017-01-19T02:21:20.181Z,-15.74
2017-01-19T02:22:20.334Z,-15.7
2017-01-19T02:23:20.135Z,-15.74
2017-01-19T02:24:20.105Z,-15.75
2017-01-19T02:25:20.284Z,-15.75
2017-01-19T02:26:20.055Z,-15.77
2017-01-19T02:27:20.028Z,-15.75
2017-01-19T02:28:20.038Z,-15.75
2017-01-19T02:29:19.978Z,-15.7
2017-01-19T02:30:19.953Z,-15.77
2017-01-19T02:31:20.032Z,-15.75
2017-01-19T02:32:19.903Z,-15.74
2017-01-19T02:33:19.877Z,-15.75
2017-01-19T02:34:19.947Z,-15.81
2017-01-19T02:35:19.825Z,-15.87
2017-01-19T02:36:19.799Z,-15.78
2017-01-19T02:37:19.871Z,-15.74
2017-01-19T02:38:19.858Z,-15.8
2017-01-19T02:39:19.723Z,-15.78
2017-01-19T02:40:19.922Z,-15.81
2017-01-19T02:41:19.672Z,-15.77
2017-01-19T02:42:19.643Z,-15.7
2017-01-19T02:43:19.860Z,-15.77
2017-01-19T02:44:19.593Z,-15.71
2017-01-19T02:45:19.571Z,-15.74
2017-01-19T02:46:19.744Z,-15.75
2017-01-19T02:47:19.516Z,-15.7
2017-01-19T02:48:19.490Z,-15.82
2017-01-19T02:49:19.469Z,-15.84
2017-01-19T02:50:19.438Z,-15.84
2017-01-19T02:51:19.419Z,-15.85
2017-01-19T02:52:19.389Z,-15.85
2017-01-19T02:53:19.465Z,-15.78
2017-01-19T02:54:19.337Z,-15.8
2017-01-19T02:55:19.313Z,-15.85
2017-01-19T02:56:19.286Z,-15.75
2017-01-19T02:57:19.260Z,-15.85
2017-01-19T02:58:19.234Z,-15.85
2017-01-19T02:59:19.229Z,-15.9
2017-01-19T03:00:19.185Z,-15.9
2017-01-19T03:01:19.158Z,-15.78
2017-01-19T03:02:19.131Z,-15.82
2017-01-19T03:03:19.109Z,-15.82
2017-01-19T03:04:19.081Z,-15.78
2017-01-19T03:05:19.055Z,-15.77
2017-01-19T03:06:19.031Z,-15.71
2017-01-19T03:07:19.003Z,-15.7
2017-01-19T03:08:18.979Z,-15.67
2017-01-19T03:09:18.954Z,-15.66
2017-01-19T03:10:18.926Z,-15.6
2017-01-19T03:11:18.903Z,-15.54
2017-01-19T03:12:18.872Z,-15.61
2017-01-19T03:13:18.847Z,-15.58
2017-01-19T03:14:18.821Z,-15.61
2017-01-19T03:15:18.796Z,-15.66
2017-01-19T03:16:18.773Z,-15.66
2017-01-19T03:17:18.744Z,-15.66
2017-01-19T03:18:18.720Z,-15.77
2017-01-19T03:19:18.696Z,-15.69
2017-01-19T03:20:18.675Z,-15.67
2017-01-19T03:21:18.645Z,-15.71
2017-01-19T03:22:18.619Z,-15.71
2017-01-19T03:23:18.588Z,-15.74
2017-01-19T03:24:18.566Z,-15.67
2017-01-19T03:25:18.540Z,-15.64
2017-01-19T03:26:18.514Z,-15.6
2017-01-19T03:27:18.486Z,-15.57
2017-01-19T03:28:18.466Z,-15.58
2017-01-19T03:29:18.437Z,-15.49
2017-01-19T03:30:18.411Z,-15.5
2017-01-19T03:31:18.386Z,-15.54
2017-01-19T03:32:18.359Z,-15.54
2017-01-19T03:33:18.336Z,-15.49
2017-01-19T03:34:18.306Z,-15.43
2017-01-19T03:35:18.284Z,-15.42
2017-01-19T03:36:18.260Z,-15.39
2017-01-19T03:37:18.238Z,-15.42
2017-01-19T03:38:18.201Z,-15.4
2017-01-19T03:39:18.179Z,-15.31
2017-01-19T03:40:18.153Z,-15.29
2017-01-19T03:41:18.126Z,-15.29
2017-01-19T03:42:18.103Z,-15.28
2017-01-19T03:43:18.076Z,-15.28
2017-01-19T03:44:18.100Z,-15.28
2017-01-19T03:45:18.024Z,-15.28
2017-01-19T03:46:17.998Z,-15.28
2017-01-19T03:47:17.973Z,-15.19
2017-01-19T03:48:17.948Z,-15.22
2017-01-19T03:49:17.924Z,-15.24
2017-01-19T03:50:17.897Z,-15.34
2017-01-19T03:51:17.872Z,-15.28
2017-01-19T03:52:17.846Z,-15.19
2017-01-19T03:53:17.820Z,-15.21
2017-01-19T03:54:17.793Z,-15.19
2017-01-19T03:55:17.764Z,-15.16
2017-01-19T03:56:17.741Z,-15.16
2017-01-19T03:57:17.719Z,-15.16
2017-01-19T03:58:17.692Z,-15.16
2017-01-19T03:59:17.668Z,-15.13
2017-01-19T04:00:17.646Z,-15.14
2017-01-19T04:01:17.617Z,-15.09
2017-01-19T04:02:17.589Z,-15.03
2017-01-19T04:03:17.566Z,-14.97
2017-01-19T04:04:17.538Z,-15.03
2017-01-19T04:05:17.512Z,-15.02
2017-01-19T04:06:17.489Z,-15.03
2017-01-19T04:07:17.463Z,-14.99
2017-01-19T04:08:17.435Z,-15
2017-01-19T04:09:17.412Z,-15.02
2017-01-19T04:10:17.388Z,-15.04
2017-01-19T04:11:17.358Z,-15
2017-01-19T04:12:17.334Z,-15.03
2017-01-19T04:13:17.308Z,-15
2017-01-19T04:14:17.286Z,-14.99
2017-01-19T04:15:17.261Z,-15
2017-01-19T04:16:17.233Z,-14.99
2017-01-19T04:17:17.205Z,-14.99
2017-01-19T04:18:17.180Z,-14.95
2017-01-19T04:19:17.156Z,-14.88
2017-01-19T04:20:17.132Z,-14.79
2017-01-19T04:21:17.105Z,-14.73
2017-01-19T04:22:17.079Z,-14.64
2017-01-19T04:23:17.054Z,-14.56
2017-01-19T04:24:17.031Z,-14.61
2017-01-19T04:25:17.005Z,-14.53
2017-01-19T04:26:16.976Z,-14.53
2017-01-19T04:27:16.950Z,-14.61
2017-01-19T04:28:16.924Z,-14.49
2017-01-19T04:29:16.907Z,-14.46
2017-01-19T04:30:16.877Z,-14.49
2017-01-19T04:31:16.853Z,-14.36
2017-01-19T04:32:16.825Z,-14.39
2017-01-19T04:33:16.800Z,-14.39
2017-01-19T04:34:16.774Z,-14.46
2017-01-19T04:35:16.748Z,-14.44
2017-01-19T04:36:16.723Z,-14.47
2017-01-19T04:37:16.698Z,-14.42
2017-01-19T04:38:16.672Z,-14.49
2017-01-19T04:39:16.648Z,-14.46
2017-01-19T04:40:16.623Z,-14.43
2017-01-19T04:41:16.598Z,-14.49
2017-01-19T04:42:16.573Z,-14.5
2017-01-19T04:43:16.548Z,-14.52
2017-01-19T04:44:16.522Z,-14.46
2017-01-19T04:45:16.498Z,-14.54
2017-01-19T04:46:16.471Z,-14.44
2017-01-19T04:47:16.444Z,-14.46
2017-01-19T04:48:16.419Z,-14.42
2017-01-19T04:49:16.396Z,-14.46
2017-01-19T04:50:16.371Z,-14.47
2017-01-19T04:51:16.348Z,-14.47
2017-01-19T04:52:16.319Z,-14.47
2017-01-19T04:53:16.304Z,-14.46
2017-01-19T04:54:16.270Z,-14.46
2017-01-19T04:55:16.243Z,-14.5
2017-01-19T04:56:16.215Z,-14.49
2017-01-19T04:57:16.191Z,-14.56
2017-01-19T04:58:16.169Z,-14.52
2017-01-19T04:59:16.140Z,-14.6
2017-01-19T05:00:16.113Z,-14.63
2017-01-19T05:01:16.088Z,-14.61
2017-01-19T05:02:16.061Z,-14.64
2017-01-19T05:03:16.038Z,-14.71
2017-01-19T05:04:16.013Z,-14.73
2017-01-19T05:05:15.984Z,-14.86
2017-01-19T05:06:15.959Z,-14.84
2017-01-19T05:07:15.935Z,-14.89
2017-01-19T05:08:15.914Z,-15
2017-01-19T05:09:15.889Z,-14.97
2017-01-19T05:10:15.859Z,-15.04
2017-01-19T05:11:15.833Z,-15.07
2017-01-19T05:12:15.804Z,-15.16
2017-01-19T05:13:15.780Z,-15.21
2017-01-19T05:14:15.758Z,-15.24
2017-01-19T05:15:15.728Z,-15.25
2017-01-19T05:16:15.704Z,-15.52
2017-01-19T05:17:15.677Z,-15.42
2017-01-19T05:18:15.653Z,-15.64
2017-01-19T05:19:15.627Z,-15.6
2017-01-19T05:20:15.602Z,-15.69
2017-01-19T05:21:15.575Z,-15.74
2017-01-19T05:22:15.550Z,-15.78
2017-01-19T05:23:15.523Z,-15.92
2017-01-19T05:24:15.498Z,-15.87
2017-01-19T05:25:15.475Z,-15.9
2017-01-19T05:26:15.449Z,-15.93
2017-01-19T05:27:15.418Z,-16.01
2017-01-19T05:28:15.400Z,-15.99
2017-01-19T05:29:15.370Z,-15.98
2017-01-19T05:30:15.343Z,-15.98
2017-01-19T05:31:15.317Z,-16.01
2017-01-19T05:32:15.292Z,-16.01
2017-01-19T05:33:15.263Z,-16.08
2017-01-19T05:34:15.239Z,-16.06
2017-01-19T05:35:15.213Z,-16.06
2017-01-19T05:36:15.187Z,-16.13
2017-01-19T05:37:15.162Z,-16.09
2017-01-19T05:38:15.135Z,-16.14
2017-01-19T05:39:15.109Z,-16.12
2017-01-19T05:40:15.084Z,-16.09
2017-01-19T05:41:15.057Z,-16.23
2017-01-19T05:42:15.032Z,-16.16
2017-01-19T05:43:15.004Z,-16.3
2017-01-19T05:44:14.978Z,-16.31
2017-01-19T05:45:14.952Z,-16.23
2017-01-19T05:46:14.931Z,-16.27
2017-01-19T05:47:14.903Z,-16.22
2017-01-19T05:48:14.877Z,-16.2
2017-01-19T05:49:14.870Z,-16.2
2017-01-19T05:50:14.824Z,-16.06
2017-01-19T05:51:14.796Z,-16.08
2017-01-19T05:52:14.772Z,-16.06
2017-01-19T05:53:14.747Z,-16.12
2017-01-19T05:54:14.720Z,-16.06
2017-01-19T05:55:14.695Z,-16.09
2017-01-19T05:56:14.668Z,-16.17
2017-01-19T05:57:14.641Z,-16.14
2017-01-19T05:58:14.612Z,-16.14
2017-01-19T05:59:14.588Z,-16.13
2017-01-19T06:00:14.562Z,-16.23
2017-01-19T06:01:14.537Z,-16.17
2017-01-19T06:02:14.513Z,-16.17
2017-01-19T06:03:14.487Z,-16.19
2017-01-19T06:04:14.460Z,-16.23
2017-01-19T06:05:14.431Z,-16.27
2017-01-19T06:06:14.406Z,-16.4
2017-01-19T06:07:14.380Z,-16.27
2017-01-19T06:08:14.357Z,-16.35
2017-01-19T06:09:14.330Z,-16.45
2017-01-19T06:10:14.302Z,-16.41
2017-01-19T06:11:14.277Z,-16.43
2017-01-19T06:12:14.250Z,-16.43
2017-01-19T06:13:14.226Z,-16.45
2017-01-19T06:14:14.195Z,-16.4
2017-01-19T06:15:14.172Z,-16.45
2017-01-19T06:16:14.148Z,-16.56
2017-01-19T06:17:14.120Z,-16.47
2017-01-19T06:18:14.091Z,-16.6
2017-01-19T06:19:14.067Z,-16.56
2017-01-19T06:20:14.040Z,-16.55
2017-01-19T06:21:14.015Z,-16.56
2017-01-19T06:22:13.989Z,-16.6
2017-01-19T06:23:13.963Z,-16.68
2017-01-19T06:24:13.934Z,-16.6
2017-01-19T06:25:13.908Z,-16.59
2017-01-19T06:26:13.884Z,-16.6
2017-01-19T06:27:13.857Z,-16.65
2017-01-19T06:28:13.831Z,-16.57
2017-01-19T06:29:13.807Z,-16.62
2017-01-19T06:30:13.777Z,-16.66
2017-01-19T06:31:13.750Z,-16.71
2017-01-19T06:32:14.127Z,-16.68
2017-01-19T06:33:13.699Z,-16.71
2017-01-19T06:34:13.677Z,-16.76
2017-01-19T06:35:13.649Z,-16.77
2017-01-19T06:36:13.966Z,-16.77
2017-01-19T06:37:13.595Z,-16.83
2017-01-19T06:38:13.566Z,-16.73
2017-01-19T06:39:13.543Z,-16.88
2017-01-19T06:40:13.516Z,-16.73
2017-01-19T06:41:13.492Z,-16.77
2017-01-19T06:42:13.464Z,-16.74
2017-01-19T06:43:13.438Z,-16.73
2017-01-19T06:44:13.407Z,-16.7
2017-01-19T06:45:13.384Z,-16.78
2017-01-19T06:46:13.358Z,-16.91
2017-01-19T06:47:13.331Z,-16.86
2017-01-19T06:48:13.305Z,-16.92
2017-01-19T06:49:13.281Z,-16.81
2017-01-19T06:50:13.251Z,-16.86
2017-01-19T06:51:13.225Z,-16.81
2017-01-19T06:52:13.201Z,-16.76
2017-01-19T06:53:13.175Z,-16.74
2017-01-19T06:54:13.149Z,-16.74
2017-01-19T06:55:13.119Z,-16.77
2017-01-19T06:56:13.092Z,-16.78
2017-01-19T06:57:13.067Z,-16.73
2017-01-19T06:58:13.042Z,-16.68
2017-01-19T06:59:13.015Z,-16.66
2017-01-19T07:00:12.990Z,-16.56
2017-01-19T07:01:12.960Z,-16.66
2017-01-19T07:02:12.933Z,-16.52
2017-01-19T07:03:12.909Z,-16.52
2017-01-19T07:04:12.886Z,-16.49
2017-01-19T07:05:12.856Z,-16.44
2017-01-19T07:06:12.836Z,-16.44
2017-01-19T07:07:12.801Z,-16.4
2017-01-19T07:08:12.779Z,-16.31
2017-01-19T07:09:12.749Z,-16.3
2017-01-19T07:10:12.725Z,-16.24
2017-01-19T07:11:12.699Z,-16.2
2017-01-19T07:12:12.673Z,-16.14
2017-01-19T07:13:12.644Z,-16.12
2017-01-19T07:14:12.619Z,-16.16
2017-01-19T07:15:12.601Z,-16.06
2017-01-19T07:16:12.567Z,-16.05
2017-01-19T07:17:12.541Z,-15.99
2017-01-19T07:18:12.518Z,-16.03
2017-01-19T07:19:12.490Z,-16.01
2017-01-19T07:20:12.460Z,-15.85
2017-01-19T07:21:12.433Z,-15.85
2017-01-19T07:22:12.408Z,-15.84
2017-01-19T07:23:12.383Z,-15.7
2017-01-19T07:24:12.358Z,-15.67
2017-01-19T07:25:12.330Z,-15.61
2017-01-19T07:26:12.302Z,-15.54
2017-01-19T07:27:12.279Z,-15.5
2017-01-19T07:28:12.252Z,-15.58
2017-01-19T07:29:12.225Z,-15.43
2017-01-19T07:30:12.202Z,-15.4
2017-01-19T07:31:12.173Z,-15.29
2017-01-19T07:32:12.149Z,-15.4
2017-01-19T07:33:12.124Z,-15.25
2017-01-19T07:34:12.096Z,-15.31
2017-01-19T07:35:12.067Z,-15.28
2017-01-19T07:36:12.042Z,-15.22
2017-01-19T07:37:12.019Z,-15.19
2017-01-19T07:38:11.989Z,-15.19
2017-01-19T07:39:11.963Z,-15.1
2017-01-19T07:40:11.936Z,-15.1
2017-01-19T07:41:11.911Z,-15.03
2017-01-19T07:42:11.885Z,-15.07
2017-01-19T07:43:11.858Z,-15.03
2017-01-19T07:44:11.833Z,-15
2017-01-19T07:45:11.811Z,-15.02
2017-01-19T07:46:11.780Z,-14.94
2017-01-19T07:47:11.755Z,-14.97
2017-01-19T07:48:11.730Z,-15
2017-01-19T07:49:11.707Z,-14.97
2017-01-19T07:50:11.682Z,-15.03
2017-01-19T07:51:11.652Z,-15.06
2017-01-19T07:52:11.629Z,-15.06
2017-01-19T07:53:11.612Z,-15
2017-01-19T07:54:11.573Z,-15.03
2017-01-19T07:55:11.549Z,-14.97
2017-01-19T07:56:11.524Z,-14.97
2017-01-19T07:57:11.494Z,-14.91
2017-01-19T07:58:11.472Z,-14.85
2017-01-19T07:59:11.450Z,-14.84
2017-01-19T08:00:11.421Z,-14.67
2017-01-19T08:01:11.396Z,-14.74
2017-01-19T08:02:11.368Z,-14.64
2017-01-19T08:03:11.349Z,-14.65
2017-01-19T08:04:11.336Z,-14.57
2017-01-19T08:05:11.293Z,-14.61
2017-01-19T08:06:11.264Z,-14.57
2017-01-19T08:07:11.242Z,-14.42
2017-01-19T08:08:11.214Z,-14.46
2017-01-19T08:09:11.188Z,-14.33
2017-01-19T08:10:11.163Z,-14.36
2017-01-19T08:11:11.139Z,-14.28
2017-01-19T08:12:11.112Z,-14.2
2017-01-19T08:13:11.087Z,-14.25
2017-01-19T08:14:11.061Z,-14.12
2017-01-19T08:15:11.036Z,-14.11
2017-01-19T08:16:11.013Z,-14.14
2017-01-19T08:17:11.164Z,-14.05
2017-01-19T08:18:11.140Z,-14.08
2017-01-19T08:19:11.116Z,-13.94
2017-01-19T08:20:11.090Z,-13.9
2017-01-19T08:21:11.065Z,-13.87
2017-01-19T08:22:11.042Z,-13.8
2017-01-19T08:23:11.014Z,-13.72
2017-01-19T08:24:10.989Z,-13.75
2017-01-19T08:25:10.961Z,-13.63
2017-01-19T08:26:10.942Z,-13.65
2017-01-19T08:27:10.914Z,-13.42
2017-01-19T08:28:10.887Z,-13.5
2017-01-19T08:29:10.861Z,-13.53
2017-01-19T08:30:10.840Z,-13.3
2017-01-19T08:31:10.811Z,-13.43
2017-01-19T08:32:10.786Z,-13.27
2017-01-19T08:33:10.763Z,-13.37
2017-01-19T08:34:10.741Z,-13.35
2017-01-19T08:35:10.715Z,-13.29
2017-01-19T08:36:10.690Z,-13.22
2017-01-19T08:37:10.661Z,-13.29
2017-01-19T08:38:10.640Z,-13.12
2017-01-19T08:39:10.615Z,-13.12
2017-01-19T08:40:10.987Z,-13.09
2017-01-19T08:41:10.567Z,-13.09
2017-01-19T08:42:10.540Z,-13.04
2017-01-19T08:43:10.517Z,-12.94
2017-01-19T08:44:10.488Z,-12.93
2017-01-19T08:45:10.465Z,-13.01
2017-01-19T08:46:10.445Z,-13
2017-01-19T08:47:10.416Z,-12.91
2017-01-19T08:48:10.393Z,-12.87
2017-01-19T08:49:10.367Z,-12.83
2017-01-19T08:50:10.340Z,-12.86
2017-01-19T08:51:10.323Z,-12.87
2017-01-19T08:52:10.293Z,-12.95
2017-01-19T08:53:10.269Z,-12.73
2017-01-19T08:54:10.245Z,-12.82
2017-01-19T08:55:10.219Z,-12.68
2017-01-19T08:56:10.196Z,-12.73
2017-01-19T08:57:10.172Z,-12.69
2017-01-19T08:58:10.150Z,-12.72
2017-01-19T08:59:10.128Z,-12.64
2017-01-19T09:00:10.099Z,-12.69
2017-01-19T09:01:10.078Z,-12.68
2017-01-19T09:02:10.049Z,-12.74
2017-01-19T09:03:10.024Z,-12.9
2017-01-19T09:04:10.005Z,-12.82
2017-01-19T09:05:09.981Z,-12.91
2017-01-19T09:06:09.951Z,-12.86
2017-01-19T09:07:09.928Z,-12.87
2017-01-19T09:08:09.907Z,-12.83
2017-01-19T09:09:09.884Z,-12.87
2017-01-19T09:10:09.880Z,-12.8
2017-01-19T09:11:09.830Z,-12.83
2017-01-19T09:12:09.808Z,-12.84
2017-01-19T09:13:09.788Z,-12.77
2017-01-19T09:14:09.756Z,-12.9
2017-01-19T09:15:09.736Z,-12.82
2017-01-19T09:16:09.711Z,-12.65
2017-01-19T09:17:09.686Z,-12.69
2017-01-19T09:18:09.658Z,-12.66
2017-01-19T09:19:09.638Z,-12.58
2017-01-19T09:20:09.611Z,-12.55
2017-01-19T09:21:09.592Z,-12.54
2017-01-19T09:22:09.569Z,-12.43
2017-01-19T09:23:09.642Z,-12.37
2017-01-19T09:24:09.514Z,-12.29
2017-01-19T09:25:09.492Z,-12.32
2017-01-19T09:26:09.467Z,-12.18
2017-01-19T09:27:09.447Z,-12.21
2017-01-19T09:28:09.419Z,-12.07
2017-01-19T09:29:09.393Z,-12.01
2017-01-19T09:30:09.374Z,-11.95
2017-01-19T09:31:09.348Z,-11.86
2017-01-19T09:32:09.322Z,-11.84
2017-01-19T09:33:09.304Z,-11.81
2017-01-19T09:34:09.277Z,-11.7
2017-01-19T09:35:09.648Z,-11.6
2017-01-19T09:36:09.229Z,-11.5
2017-01-19T09:37:09.207Z,-11.34
2017-01-19T09:38:09.183Z,-11.33
2017-01-19T09:39:09.159Z,-11.4
2017-01-19T09:40:09.135Z,-11.2
2017-01-19T09:41:09.107Z,-11.2
2017-01-19T09:42:09.090Z,-11.08
2017-01-19T09:43:09.061Z,-10.95
2017-01-19T09:44:09.039Z,-10.83
2017-01-19T09:45:09.020Z,-10.75
2017-01-19T09:46:08.991Z,-10.72
2017-01-19T09:47:08.969Z,-10.69
2017-01-19T09:48:08.971Z,-10.55
2017-01-19T09:49:08.921Z,-10.57
2017-01-19T09:50:08.897Z,-10.33
2017-01-19T09:51:08.875Z,-10.26
2017-01-19T09:52:08.855Z,-10.28
2017-01-19T09:53:08.829Z,-10.17
2017-01-19T09:54:08.805Z,-10.2
2017-01-19T09:55:08.777Z,-10.17
2017-01-19T09:56:08.763Z,-10.07
2017-01-19T09:57:08.738Z,-10.06
2017-01-19T09:58:08.714Z,-10.06
2017-01-19T09:59:08.689Z,-9.92
2017-01-19T10:00:08.668Z,-10.06
2017-01-19T10:01:08.642Z,-9.92
2017-01-19T10:02:08.619Z,-9.94
2017-01-19T10:03:08.597Z,-9.8
2017-01-19T10:04:08.572Z,-9.77
2017-01-19T10:05:08.550Z,-9.68
2017-01-19T10:06:08.531Z,-9.8
2017-01-19T10:07:08.533Z,-9.71
2017-01-19T10:08:08.886Z,-9.65
2017-01-19T10:09:08.458Z,-9.6
2017-01-19T10:10:08.439Z,-9.62
2017-01-19T10:11:08.414Z,-9.6
2017-01-19T10:12:08.391Z,-9.6
2017-01-19T10:13:08.369Z,-9.68
2017-01-19T10:14:08.346Z,-9.55
2017-01-19T10:15:08.325Z,-9.47
2017-01-19T10:16:08.301Z,-9.41
2017-01-19T10:17:08.279Z,-9.29
2017-01-19T10:18:08.269Z,-9.23
2017-01-19T10:19:08.235Z,-9.23
2017-01-19T10:20:08.211Z,-9.09
2017-01-19T10:21:08.188Z,-9.05
2017-01-19T10:22:08.165Z,-8.91
2017-01-19T10:23:08.143Z,-8.99
2017-01-19T10:24:08.120Z,-8.88
2017-01-19T10:25:08.124Z,-8.88
2017-01-19T10:26:08.079Z,-8.86
2017-01-19T10:27:08.052Z,-8.77
2017-01-19T10:28:08.032Z,-8.72
2017-01-19T10:29:08.010Z,-8.57
2017-01-19T10:30:07.987Z,-8.56
2017-01-19T10:31:07.965Z,-8.49
2017-01-19T10:32:07.943Z,-8.3
2017-01-19T10:33:07.929Z,-8.3
2017-01-19T10:34:07.898Z,-8.18
2017-01-19T10:35:07.876Z,-7.96
2017-01-19T10:36:07.855Z,-7.87
2017-01-19T10:37:07.836Z,-7.77
2017-01-19T10:38:07.810Z,-7.59
2017-01-19T10:39:07.786Z,-7.56
2017-01-19T10:40:07.764Z,-7.34
2017-01-19T10:41:07.743Z,-7.22
2017-01-19T10:42:07.723Z,-7.02
2017-01-19T10:43:07.703Z,-6.91
2017-01-19T10:44:07.683Z,-6.78
2017-01-19T10:45:08.054Z,-6.65
2017-01-19T10:46:07.634Z,-6.65
2017-01-19T10:47:07.615Z,-6.37
2017-01-19T10:48:07.594Z,-6.34
2017-01-19T10:49:07.572Z,-6.34
2017-01-19T10:50:07.554Z,-6.25
2017-01-19T10:51:07.530Z,-6.22
2017-01-19T10:52:07.509Z,-6.2
2017-01-19T10:53:07.488Z,-6.12
2017-01-19T10:54:07.467Z,-6.02
2017-01-19T10:55:07.447Z,-5.98
2017-01-19T10:56:07.425Z,-5.97
2017-01-19T10:57:07.402Z,-5.89
2017-01-19T10:58:07.384Z,-5.94
2017-01-19T10:59:07.361Z,-5.8
2017-01-19T11:00:07.341Z,-5.79
2017-01-19T11:01:07.318Z,-5.83
2017-01-19T11:02:07.298Z,-5.76
2017-01-19T11:03:07.281Z,-5.76
2017-01-19T11:04:07.253Z,-5.74
2017-01-19T11:05:07.635Z,-5.81
2017-01-19T11:06:07.220Z,-5.81
2017-01-19T11:07:07.198Z,-5.79
2017-01-19T11:08:07.209Z,-5.8
2017-01-19T11:09:07.150Z,-5.74
2017-01-19T11:10:07.134Z,-5.73
2017-01-19T11:11:07.114Z,-5.59
2017-01-19T11:12:07.093Z,-5.7
2017-01-19T11:13:07.068Z,-5.68
2017-01-19T11:14:07.046Z,-5.69
2017-01-19T11:15:07.427Z,-5.7
2017-01-19T11:16:07.007Z,-5.74
2017-01-19T11:17:07.145Z,-5.74
2017-01-19T11:18:06.970Z,-5.81
2017-01-19T11:19:06.978Z,-5.76
2017-01-19T11:20:06.929Z,-5.83
2017-01-19T11:21:06.908Z,-5.74
2017-01-19T11:22:06.888Z,-5.73
2017-01-19T11:23:06.866Z,-5.68
2017-01-19T11:24:06.848Z,-5.6
2017-01-19T11:25:06.828Z,-5.59
2017-01-19T11:26:06.807Z,-5.45
2017-01-19T11:27:06.785Z,-5.4
2017-01-19T11:28:06.767Z,-5.35
2017-01-19T11:29:06.773Z,-5.33
2017-01-19T11:30:06.721Z,-5.22
2017-01-19T11:31:06.703Z,-5.26
2017-01-19T11:32:06.686Z,-5.05
2017-01-19T11:33:06.664Z,-4.97
2017-01-19T11:34:06.646Z,-4.93
2017-01-19T11:35:06.622Z,-4.89
2017-01-19T11:36:06.603Z,-4.68
2017-01-19T11:37:06.586Z,-4.61
2017-01-19T11:38:06.564Z,-4.65
2017-01-19T11:39:06.541Z,-4.65
2017-01-19T11:40:06.520Z,-4.51
2017-01-19T11:41:06.502Z,-4.48
2017-01-19T11:42:06.483Z,-4.48
2017-01-19T11:43:06.462Z,-4.45
2017-01-19T11:44:06.443Z,-4.33
2017-01-19T11:45:06.420Z,-4.33
2017-01-19T11:46:06.404Z,-4.27
2017-01-19T11:47:06.385Z,-4.16
2017-01-19T11:48:06.363Z,-4.22
2017-01-19T11:49:06.341Z,-4.16
2017-01-19T11:50:06.720Z,-4.14
2017-01-19T11:51:06.309Z,-4.15
2017-01-19T11:52:06.290Z,-4.16
2017-01-19T11:53:06.264Z,-4.16
2017-01-19T11:54:06.242Z,-4.01
2017-01-19T11:55:06.227Z,-4.05
2017-01-19T11:56:06.205Z,-4.04
2017-01-19T11:57:06.190Z,-3.91
2017-01-19T11:58:06.163Z,-3.88
2017-01-19T11:59:06.153Z,-3.82
2017-01-19T12:00:06.127Z,-3.76
2017-01-19T12:01:06.104Z,-3.77
2017-01-19T12:02:06.089Z,-3.68
2017-01-19T12:03:06.067Z,-3.72
2017-01-19T12:04:06.049Z,-3.72
2017-01-19T12:05:06.029Z,-3.63
2017-01-19T12:06:06.010Z,-3.53
2017-01-19T12:07:05.991Z,-3.57
2017-01-19T12:08:05.968Z,-3.6
2017-01-19T12:09:05.954Z,-3.54
2017-01-19T12:10:05.931Z,-3.68
2017-01-19T12:11:05.913Z,-3.66
2017-01-19T12:12:05.893Z,-3.71
2017-01-19T12:13:05.870Z,-3.75
2017-01-19T12:14:05.862Z,-3.79
2017-01-19T12:15:05.837Z,-3.71
2017-01-19T12:16:05.813Z,-3.69
2017-01-19T12:17:05.794Z,-3.65
2017-01-19T12:18:05.783Z,-3.65
2017-01-19T12:19:05.758Z,-3.66
2017-01-19T12:20:05.741Z,-3.69
2017-01-19T12:21:05.717Z,-3.71
2017-01-19T12:22:05.693Z,-3.76
2017-01-19T12:23:05.680Z,-3.68
2017-01-19T12:24:05.663Z,-3.63
2017-01-19T12:25:05.639Z,-3.66
2017-01-19T12:26:05.623Z,-3.68
2017-01-19T12:27:05.601Z,-3.82
2017-01-19T12:28:05.584Z,-3.87
2017-01-19T12:29:05.564Z,-3.8
2017-01-19T12:30:05.551Z,-3.88
2017-01-19T12:31:05.522Z,-3.87
2017-01-19T12:32:05.505Z,-3.83
2017-01-19T12:33:05.482Z,-3.82
2017-01-19T12:34:05.471Z,-3.82
2017-01-19T12:35:05.446Z,-3.88
2017-01-19T12:36:05.428Z,-3.82